createdAt,value
2023-01-22T00:02:27.106Z,29.85
2023-01-22T00:05:32.919Z,29.73
2023-01-22T00:08:09.068Z,29.48
2023-01-22T00:13:45.936Z,30.48
2023-01-22T00:16:19.364Z,34.17
2023-01-22T00:18:47.551Z,31.45
2023-01-22T00:21:18.830Z,35.17
2023-01-22T00:23:51.608Z,30.77
2023-01-22T00:29:34.437Z,33.15
2023-01-22T00:32:16.131Z,28.60
2023-01-22T00:34:45.388Z,26.42
2023-01-22T00:37:46.579Z,26.77
2023-01-22T00:40:26.632Z,30.65
2023-01-22T00:43:07.251Z,27.90
2023-01-22T00:45:46.327Z,29.77
2023-01-22T00:48:37.935Z,27.90
2023-01-22T00:51:09.169Z,31.42
2023-01-22T00:53:50.387Z,30.48
2023-01-22T00:56:48.813Z,23.40
2023-01-22T00:59:15.595Z,21.27
2023-01-22T01:01:42.315Z,24.38
2023-01-22T01:04:11.214Z,22.75
2023-01-22T01:06:42.577Z,18.48
2023-01-22T01:09:14.453Z,14.05
2023-01-22T01:11:52.371Z,16.52
2023-01-22T01:14:21.243Z,15.27
2023-01-22T01:16:51.609Z,20.13
2023-01-22T01:19:35.229Z,21.83
2023-01-22T01:22:06.438Z,17.77
2023-01-22T01:24:36.841Z,19.53
2023-01-22T01:27:11.473Z,15.90
2023-01-22T01:29:38.203Z,20.50
2023-01-22T01:32:05.294Z,14.35
2023-01-22T01:34:31.990Z,13.00
2023-01-22T01:37:12.113Z,14.70
2023-01-22T01:39:38.882Z,12.57
2023-01-22T01:42:25.448Z,11.88
2023-01-22T01:45:28.992Z,16.27
2023-01-22T01:48:04.850Z,13.63
2023-01-22T01:50:47.753Z,7.05
2023-01-22T01:53:42.108Z,12.93
2023-01-22T01:56:22.376Z,11.43
2023-01-22T01:58:59.679Z,8.50
2023-01-22T02:04:24.150Z,9.52
2023-01-22T02:06:50.821Z,13.13
2023-01-22T02:09:20.362Z,8.98
2023-01-22T02:11:53.892Z,10.60
2023-01-22T02:15:02.877Z,9.25
2023-01-22T02:17:30.236Z,10.10
2023-01-22T02:19:57.024Z,13.15
2023-01-22T02:22:41.087Z,10.27
2023-01-22T02:25:09.410Z,5.60
2023-01-22T02:27:43.810Z,8.85
2023-01-22T02:30:12.202Z,7.25
2023-01-22T02:32:40.823Z,6.75
2023-01-22T02:35:08.868Z,13.77
2023-01-22T02:37:38.465Z,7.28
2023-01-22T02:40:10.017Z,15.57
2023-01-22T02:42:45.580Z,9.75
2023-01-22T02:45:12.552Z,5.63
2023-01-22T02:47:45.169Z,6.78
2023-01-22T02:50:14.834Z,8.52
2023-01-22T02:52:53.636Z,5.45
2023-01-22T02:55:26.155Z,7.20
2023-01-22T02:58:17.327Z,8.07
2023-01-22T03:00:48.902Z,5.35
2023-01-22T03:03:18.338Z,6.03
2023-01-22T03:05:51.180Z,8.95
2023-01-22T03:08:19.553Z,9.18
2023-01-22T03:10:46.794Z,7.78
2023-01-22T03:13:48.513Z,4.38
2023-01-22T03:16:39.625Z,5.13
2023-01-22T03:19:26.307Z,4.82
2023-01-22T03:22:03.041Z,6.68
2023-01-22T03:25:04.489Z,4.97
2023-01-22T03:27:32.364Z,5.57
2023-01-22T03:30:08.503Z,5.80
2023-01-22T03:32:38.400Z,7.22
2023-01-22T03:35:05.288Z,10.20
2023-01-22T03:37:43.952Z,4.15
2023-01-22T03:40:11.884Z,4.15
2023-01-22T03:42:41.693Z,6.35
2023-01-22T03:45:12.101Z,5.38
2023-01-22T03:47:41.377Z,4.53
2023-01-22T03:50:08.983Z,4.53
2023-01-22T03:52:43.885Z,6.63
2023-01-22T03:55:14.992Z,6.22
2023-01-22T03:57:47.582Z,5.55
2023-01-22T04:00:20.643Z,7.75
2023-01-22T04:02:53.082Z,9.20
2023-01-22T04:05:29.234Z,4.65
2023-01-22T04:08:11.546Z,7.38
2023-01-22T04:10:39.428Z,5.53
2023-01-22T04:13:06.182Z,9.05
2023-01-22T04:15:36.460Z,6.25
2023-01-22T04:18:04.783Z,9.40
2023-01-22T04:20:39.106Z,7.20
2023-01-22T04:23:13.356Z,8.15
2023-01-22T04:25:40.096Z,5.05
2023-01-22T04:28:11.015Z,12.63
2023-01-22T04:30:47.717Z,5.95
2023-01-22T04:33:20.896Z,7.72
2023-01-22T04:35:59.882Z,10.70
2023-01-22T04:38:41.783Z,10.35
2023-01-22T04:41:08.415Z,10.35
2023-01-22T04:43:43.867Z,7.70
2023-01-22T04:49:07.828Z,7.00
2023-01-22T04:51:44.531Z,11.52
2023-01-22T04:57:14.497Z,7.82
2023-01-22T04:59:41.173Z,8.52
2023-01-22T05:02:15.041Z,9.40
2023-01-22T05:04:43.303Z,7.25
2023-01-22T05:07:13.502Z,3.75
2023-01-22T05:09:40.111Z,5.43
2023-01-22T05:12:09.805Z,9.95
2023-01-22T05:14:39.317Z,11.57
2023-01-22T05:19:49.789Z,5.53
2023-01-22T05:22:25.648Z,2.80
2023-01-22T05:25:00.995Z,3.90
2023-01-22T05:27:27.798Z,6.18
2023-01-22T05:30:11.283Z,9.55
2023-01-22T05:32:38.231Z,10.40
2023-01-22T05:35:06.650Z,7.22
2023-01-22T05:37:33.488Z,7.10
2023-01-22T05:40:00.188Z,7.68
2023-01-22T05:42:26.913Z,7.43
2023-01-22T05:44:53.511Z,9.07
2023-01-22T05:47:31.674Z,6.90
2023-01-22T05:49:58.897Z,5.32
2023-01-22T05:52:25.475Z,14.80
2023-01-22T05:54:52.104Z,10.02
2023-01-22T05:57:18.668Z,4.90
2023-01-22T05:59:51.303Z,8.52
2023-01-22T06:02:21.085Z,8.32
2023-01-22T06:05:11.456Z,6.55
2023-01-22T06:07:41.625Z,7.28
2023-01-22T06:10:16.900Z,8.68
2023-01-22T06:12:46.833Z,4.53
2023-01-22T06:15:16.642Z,3.67
2023-01-22T06:17:45.699Z,5.57
2023-01-22T06:20:15.423Z,5.97
2023-01-22T06:22:44.294Z,7.80
2023-01-22T06:25:13.700Z,8.05
2023-01-22T06:27:43.229Z,11.13
2023-01-22T06:30:20.994Z,6.95
2023-01-22T06:32:54.331Z,9.00
2023-01-22T06:35:27.004Z,5.70
2023-01-22T06:37:53.737Z,5.75
2023-01-22T06:40:20.569Z,11.60
2023-01-22T06:42:50.177Z,5.47
2023-01-22T06:45:17.914Z,5.97
2023-01-22T06:47:46.776Z,5.80
2023-01-22T06:50:13.759Z,8.40
2023-01-22T06:52:40.599Z,9.30
2023-01-22T06:55:07.569Z,7.35
2023-01-22T06:57:45.586Z,7.85
2023-01-22T07:00:45.003Z,5.18
2023-01-22T07:03:14.589Z,5.00
2023-01-22T07:05:41.632Z,8.45
2023-01-22T07:08:11.492Z,6.95
2023-01-22T07:10:41.570Z,10.43
2023-01-22T07:13:11.581Z,10.65
2023-01-22T07:15:40.905Z,6.82
2023-01-22T07:18:10.291Z,3.70
2023-01-22T07:23:24.107Z,5.22
2023-01-22T07:25:50.894Z,4.80
2023-01-22T07:28:17.572Z,8.27
2023-01-22T07:30:53.803Z,7.50
2023-01-22T07:33:29.344Z,6.68
2023-01-22T07:36:02.705Z,4.38
2023-01-22T07:38:29.873Z,3.80
2023-01-22T07:41:25.247Z,7.03
2023-01-22T07:43:53.808Z,3.58
2023-01-22T07:46:21.364Z,6.20
2023-01-22T07:48:52.839Z,6.07
2023-01-22T07:51:20.070Z,9.60
2023-01-22T07:53:53.545Z,7.15
2023-01-22T07:56:27.294Z,8.25
2023-01-22T07:58:55.421Z,6.57
2023-01-22T08:01:37.338Z,6.35
2023-01-22T08:04:04.282Z,10.15
2023-01-22T08:06:31.043Z,3.72
2023-01-22T08:09:24.582Z,4.28
2023-01-22T08:11:54.604Z,5.18
2023-01-22T08:14:24.664Z,3.85
2023-01-22T08:16:51.682Z,15.63
2023-01-22T08:19:20.356Z,5.75
2023-01-22T08:22:00.375Z,7.60
2023-01-22T08:24:27.097Z,8.00
2023-01-22T08:26:56.880Z,5.55
2023-01-22T08:29:23.941Z,7.38
2023-01-22T08:31:51.139Z,6.50
2023-01-22T08:34:18.275Z,8.52
2023-01-22T08:36:44.937Z,2.42
2023-01-22T08:39:25.192Z,5.95
2023-01-22T08:41:57.593Z,5.78
2023-01-22T08:44:36.793Z,5.78
2023-01-22T08:47:04.397Z,5.50
2023-01-22T08:49:34.047Z,12.48
2023-01-22T08:52:00.820Z,3.55
2023-01-22T08:54:37.626Z,5.55
2023-01-22T08:57:12.641Z,6.78
2023-01-22T08:59:43.151Z,4.35
2023-01-22T09:02:13.747Z,8.85
2023-01-22T09:07:32.026Z,8.85
2023-01-22T09:09:58.902Z,5.78
2023-01-22T09:12:25.561Z,6.45
2023-01-22T09:14:54.504Z,5.43
2023-01-22T09:17:32.566Z,4.88
2023-01-22T09:20:06.899Z,5.95
2023-01-22T09:22:36.821Z,7.18
2023-01-22T09:25:10.822Z,6.07
2023-01-22T09:27:45.727Z,5.75
2023-01-22T09:30:18.394Z,8.00
2023-01-22T09:32:54.796Z,4.20
2023-01-22T09:35:47.308Z,8.23
2023-01-22T09:41:05.059Z,4.30
2023-01-22T09:43:40.428Z,8.25
2023-01-22T09:46:23.490Z,5.50
2023-01-22T09:49:03.379Z,6.13
2023-01-22T09:51:34.134Z,4.07
2023-01-22T09:54:12.649Z,8.45
2023-01-22T09:56:53.110Z,6.68
2023-01-22T09:59:34.034Z,7.85
2023-01-22T10:02:48.793Z,5.43
2023-01-22T10:05:31.946Z,7.53
2023-01-22T10:08:45.422Z,3.80
2023-01-22T10:11:15.918Z,4.30
2023-01-22T10:13:55.945Z,5.10
2023-01-22T10:16:30.152Z,4.50
2023-01-22T10:21:50.850Z,13.80
2023-01-22T10:24:20.159Z,8.02
2023-01-22T10:26:59.334Z,3.47
2023-01-22T10:29:39.391Z,5.03
2023-01-22T10:32:39.647Z,5.97
2023-01-22T10:35:27.483Z,8.27
2023-01-22T10:38:41.004Z,7.45
2023-01-22T10:41:17.505Z,7.45
2023-01-22T10:43:49.101Z,4.13
2023-01-22T10:46:45.332Z,6.40
2023-01-22T10:49:32.396Z,7.38
2023-01-22T10:52:05.888Z,5.88
2023-01-22T10:54:36.892Z,5.35
2023-01-22T10:57:28.136Z,7.57
2023-01-22T11:00:24.260Z,5.40
2023-01-22T11:03:01.104Z,6.13
2023-01-22T11:05:37.191Z,9.40
2023-01-22T11:08:07.220Z,5.07
2023-01-22T11:10:50.449Z,4.40
2023-01-22T11:14:14.747Z,6.90
2023-01-22T11:16:46.664Z,4.97
2023-01-22T11:19:37.312Z,4.85
2023-01-22T11:22:23.206Z,7.03
2023-01-22T11:24:51.386Z,4.40
2023-01-22T11:27:46.642Z,3.10
2023-01-22T11:30:36.262Z,6.50
2023-01-22T11:33:29.099Z,6.85
2023-01-22T11:36:25.084Z,8.10
2023-01-22T11:39:12.716Z,7.72
2023-01-22T11:41:55.932Z,6.97
2023-01-22T11:44:43.025Z,10.90
2023-01-22T11:47:44.332Z,10.32
2023-01-22T11:50:31.029Z,10.38
2023-01-22T11:53:28.957Z,8.02
2023-01-22T11:56:24.877Z,8.13
2023-01-22T12:02:37.648Z,5.45
2023-01-22T12:06:14.816Z,6.65
2023-01-22T12:09:30.857Z,7.80
2023-01-22T12:12:42.736Z,8.30
2023-01-22T12:15:45.305Z,6.72
2023-01-22T12:19:03.272Z,5.70
2023-01-22T12:21:51.571Z,7.47
2023-01-22T12:24:31.660Z,11.70
2023-01-22T12:27:49.085Z,7.95
2023-01-22T12:30:47.737Z,12.05
2023-01-22T12:33:25.440Z,12.85
2023-01-22T12:36:01.967Z,12.90
2023-01-22T12:38:53.280Z,9.25
2023-01-22T12:41:44.488Z,9.35
2023-01-22T12:44:52.947Z,8.73
2023-01-22T12:48:00.035Z,7.90
2023-01-22T12:50:57.514Z,14.00
2023-01-22T12:53:51.301Z,12.68
2023-01-22T12:57:02.776Z,16.90
2023-01-22T13:02:46.881Z,12.00
2023-01-22T13:05:30.282Z,9.15
2023-01-22T13:08:19.076Z,7.25
2023-01-22T13:11:03.402Z,7.40
2023-01-22T13:13:34.816Z,7.43
2023-01-22T13:16:27.661Z,5.93
2023-01-22T13:18:57.578Z,5.95
2023-01-22T13:21:54.079Z,10.82
2023-01-22T13:24:28.346Z,5.70
2023-01-22T13:27:06.720Z,8.82
2023-01-22T13:29:45.848Z,7.78
2023-01-22T13:32:29.218Z,9.68
2023-01-22T13:35:13.787Z,8.52
2023-01-22T13:37:46.103Z,9.32
2023-01-22T13:40:51.306Z,6.13
2023-01-22T13:43:39.813Z,9.63
2023-01-22T13:46:34.076Z,10.27
2023-01-22T13:49:38.281Z,12.10
2023-01-22T13:52:17.311Z,7.95
2023-01-22T13:55:08.830Z,13.43
2023-01-22T13:57:57.945Z,14.70
2023-01-22T14:00:36.097Z,14.32
2023-01-22T14:03:36.046Z,13.00
2023-01-22T14:06:23.937Z,10.02
2023-01-22T14:09:00.027Z,15.90
2023-01-22T14:11:51.922Z,14.88
2023-01-22T14:14:27.341Z,19.85
2023-01-22T14:17:00.851Z,16.23
2023-01-22T14:19:44.785Z,12.30
2023-01-22T14:22:25.936Z,14.00
2023-01-22T14:24:57.229Z,13.35
2023-01-22T14:27:46.244Z,13.60
2023-01-22T14:30:30.527Z,13.75
2023-01-22T14:33:01.271Z,12.10
2023-01-22T14:35:33.456Z,12.80
2023-01-22T14:38:01.654Z,13.27
2023-01-22T14:40:38.973Z,11.57
2023-01-22T14:43:08.899Z,15.50
2023-01-22T14:46:01.515Z,11.48
2023-01-22T14:48:50.697Z,10.25
2023-01-22T14:51:22.805Z,11.20
2023-01-22T14:56:47.526Z,12.40
2023-01-22T14:59:32.061Z,11.50
2023-01-22T15:02:01.861Z,13.02
2023-01-22T15:04:31.877Z,17.55
2023-01-22T15:07:01.805Z,13.77
2023-01-22T15:09:49.045Z,12.30
2023-01-22T15:12:18.937Z,15.80
2023-01-22T15:14:56.279Z,11.10
2023-01-22T15:17:57.409Z,13.90
2023-01-22T15:20:29.747Z,11.38
2023-01-22T15:22:57.850Z,12.98
2023-01-22T15:25:29.735Z,10.38
2023-01-22T15:27:58.899Z,12.70
2023-01-22T15:30:29.036Z,15.90
2023-01-22T15:32:55.956Z,11.25
2023-01-22T15:35:29.765Z,10.25
2023-01-22T15:38:11.618Z,14.07
2023-01-22T15:40:50.146Z,7.35
2023-01-22T15:43:36.269Z,15.23
2023-01-22T15:46:16.055Z,14.23
2023-01-22T15:48:45.567Z,7.75
2023-01-22T15:51:20.154Z,10.93
2023-01-22T15:53:55.950Z,11.98
2023-01-22T15:56:28.995Z,6.78
2023-01-22T15:58:56.957Z,12.57
2023-01-22T16:01:26.201Z,7.95
2023-01-22T16:03:53.496Z,12.20
2023-01-22T16:06:26.273Z,7.53
2023-01-22T16:08:57.738Z,8.80
2023-01-22T16:11:34.239Z,8.13
2023-01-22T16:14:04.031Z,10.13
2023-01-22T16:16:33.541Z,8.30
2023-01-22T16:19:04.518Z,9.18
2023-01-22T16:21:37.358Z,9.00
2023-01-22T16:24:23.245Z,9.07
2023-01-22T16:27:01.327Z,14.05
2023-01-22T16:29:40.419Z,9.85
2023-01-22T16:32:09.955Z,9.70
2023-01-22T16:34:44.037Z,11.30
2023-01-22T16:37:14.173Z,8.60
2023-01-22T16:39:40.878Z,8.05
2023-01-22T16:42:12.362Z,11.07
2023-01-22T16:44:45.013Z,12.52
2023-01-22T16:47:18.602Z,10.10
2023-01-22T16:49:49.025Z,17.15
2023-01-22T16:52:43.962Z,8.13
2023-01-22T16:55:12.181Z,14.70
2023-01-22T16:57:38.902Z,6.25
2023-01-22T17:02:54.322Z,6.38
2023-01-22T17:05:26.681Z,11.43
2023-01-22T17:07:58.076Z,11.93
2023-01-22T17:10:24.806Z,5.90
2023-01-22T17:13:00.664Z,8.13
2023-01-22T17:18:11.791Z,8.60
2023-01-22T17:21:01.312Z,8.65
2023-01-22T17:23:49.204Z,14.07
2023-01-22T17:26:20.810Z,11.38
2023-01-22T17:28:47.735Z,13.60
2023-01-22T17:31:23.672Z,12.98
2023-01-22T17:33:57.629Z,12.20
2023-01-22T17:36:28.510Z,10.13
2023-01-22T17:39:06.600Z,8.13
2023-01-22T17:41:36.958Z,9.40
2023-01-22T17:44:04.185Z,10.50
2023-01-22T17:46:35.730Z,8.00
2023-01-22T17:49:05.918Z,13.75
2023-01-22T17:51:37.066Z,8.38
2023-01-22T17:54:07.487Z,21.00
2023-01-22T17:56:37.068Z,12.65
2023-01-22T17:59:06.499Z,9.18
2023-01-22T18:01:41.273Z,10.95
2023-01-22T18:04:13.002Z,12.05
2023-01-22T18:06:43.682Z,6.72
2023-01-22T18:09:14.510Z,8.10
2023-01-22T18:11:41.985Z,7.00
2023-01-22T18:14:25.298Z,10.65
2023-01-22T18:16:52.088Z,16.05
2023-01-22T18:19:18.961Z,10.57
2023-01-22T18:21:49.017Z,13.88
2023-01-22T18:24:16.883Z,14.52
2023-01-22T18:26:44.157Z,7.30
2023-01-22T18:29:11.690Z,13.20
2023-01-22T18:31:48.764Z,12.73
2023-01-22T18:34:16.260Z,9.68
2023-01-22T18:36:45.355Z,9.90
2023-01-22T18:39:15.193Z,7.85
2023-01-22T18:41:43.909Z,13.13
2023-01-22T18:44:15.033Z,12.07
2023-01-22T18:46:48.798Z,11.25
2023-01-22T18:49:18.913Z,8.90
2023-01-22T18:51:46.174Z,14.15
2023-01-22T18:54:13.403Z,13.02
2023-01-22T18:56:46.943Z,10.52
2023-01-22T18:59:13.789Z,10.15
2023-01-22T19:01:58.628Z,13.32
2023-01-22T19:07:27.639Z,11.18
2023-01-22T19:09:56.509Z,11.13
2023-01-22T19:12:23.114Z,9.70
2023-01-22T19:14:53.754Z,9.57
2023-01-22T19:17:23.446Z,9.43
2023-01-22T19:19:50.197Z,10.93
2023-01-22T19:22:18.542Z,12.38
2023-01-22T19:24:45.674Z,9.30
2023-01-22T19:27:15.526Z,13.90
2023-01-22T19:29:46.791Z,17.40
2023-01-22T19:32:16.492Z,9.65
2023-01-22T19:34:43.983Z,13.27
2023-01-22T19:37:10.864Z,11.90
2023-01-22T19:39:41.664Z,11.98
2023-01-22T19:44:40.163Z,10.90
2023-01-22T19:47:06.876Z,11.05
2023-01-22T19:49:39.799Z,13.77
2023-01-22T19:52:09.910Z,12.05
2023-01-22T19:54:40.653Z,8.77
2023-01-22T19:57:12.004Z,9.27
2023-01-22T19:59:48.162Z,13.50
2023-01-22T20:02:17.224Z,11.65
2023-01-22T20:04:46.409Z,12.68
2023-01-22T20:07:13.166Z,12.90
2023-01-22T20:09:59.794Z,19.13
2023-01-22T20:12:26.714Z,15.00
2023-01-22T20:15:00.001Z,11.68
2023-01-22T20:17:26.957Z,13.32
2023-01-22T20:19:53.832Z,14.45
2023-01-22T20:22:20.660Z,17.20
2023-01-22T20:24:51.875Z,27.15
2023-01-22T20:27:18.524Z,13.80
2023-01-22T20:29:45.368Z,19.88
2023-01-22T20:32:12.114Z,19.10
2023-01-22T20:34:39.403Z,20.17
2023-01-22T20:37:19.256Z,22.25
2023-01-22T20:39:45.984Z,15.02
2023-01-22T20:42:12.899Z,14.07
2023-01-22T20:44:56.653Z,13.60
2023-01-22T20:47:24.038Z,15.40
2023-01-22T20:49:57.315Z,17.15
2023-01-22T20:52:24.109Z,14.55
2023-01-22T20:55:01.481Z,16.77
2023-01-22T20:57:30.556Z,17.33
2023-01-22T20:59:57.593Z,16.85
2023-01-22T21:02:27.366Z,17.75
2023-01-22T21:05:04.628Z,23.38
2023-01-22T21:07:33.727Z,17.38
2023-01-22T21:10:11.061Z,17.38
2023-01-22T21:12:42.086Z,25.42
2023-01-22T21:15:10.415Z,19.13
2023-01-22T21:17:39.285Z,19.25
2023-01-22T21:20:07.242Z,18.95
2023-01-22T21:22:42.086Z,21.52
2023-01-22T21:25:14.642Z,16.63
2023-01-22T21:27:44.385Z,17.95
2023-01-22T21:30:18.404Z,18.33
2023-01-22T21:32:49.603Z,24.50
2023-01-22T21:35:25.997Z,17.73
2023-01-22T21:38:01.210Z,19.92
2023-01-22T21:40:35.692Z,22.80
2023-01-22T21:43:42.660Z,17.77
2023-01-22T21:46:31.844Z,24.27
2023-01-22T21:49:17.986Z,19.80
2023-01-22T21:51:57.688Z,20.52
2023-01-22T21:54:55.129Z,17.58
2023-01-22T21:57:23.488Z,22.65
2023-01-22T21:59:53.007Z,21.63
2023-01-22T22:02:22.419Z,15.52
2023-01-22T22:04:51.466Z,17.17
2023-01-22T22:07:29.429Z,17.73
2023-01-22T22:10:19.211Z,17.38
2023-01-22T22:12:49.342Z,21.60
2023-01-22T22:15:17.569Z,17.88
2023-01-22T22:18:02.747Z,16.48
2023-01-22T22:20:38.703Z,15.75
2023-01-22T22:23:05.574Z,17.92
2023-01-22T22:25:34.015Z,18.55
2023-01-22T22:28:04.109Z,18.77
2023-01-22T22:30:30.830Z,19.42
2023-01-22T22:33:07.748Z,17.85
2023-01-22T22:35:40.877Z,23.02
2023-01-22T22:38:10.408Z,18.02
2023-01-22T22:41:09.488Z,18.23
2023-01-22T22:43:43.485Z,22.75
2023-01-22T22:46:27.725Z,16.13
2023-01-22T22:49:00.666Z,17.75
2023-01-22T22:51:31.952Z,26.17
2023-01-22T22:54:08.985Z,24.23
2023-01-22T22:56:39.917Z,18.35
2023-01-22T22:59:06.879Z,19.58
2023-01-22T23:01:43.617Z,27.95
2023-01-22T23:04:11.926Z,21.98
2023-01-22T23:06:46.905Z,20.80
2023-01-22T23:09:44.281Z,22.20
2023-01-22T23:12:34.060Z,24.17
2023-01-22T23:15:12.016Z,23.85
2023-01-22T23:17:56.010Z,19.55
2023-01-22T23:20:31.154Z,19.08
2023-01-22T23:23:10.663Z,22.30
2023-01-22T23:25:45.108Z,21.95
2023-01-22T23:28:19.499Z,21.00
2023-01-22T23:30:46.223Z,19.73
2023-01-22T23:33:12.866Z,20.13
2023-01-22T23:35:39.737Z,21.15
2023-01-22T23:38:19.238Z,21.38
2023-01-22T23:40:45.797Z,22.27
2023-01-22T23:43:12.534Z,26.25
2023-01-22T23:45:39.440Z,23.60
2023-01-22T23:48:07.378Z,18.75
2023-01-22T23:50:37.323Z,24.13
2023-01-22T23:53:06.988Z,24.60
2023-01-22T23:55:36.903Z,20.85
2023-01-22T23:58:11.912Z,23.63
